sensor_id;sensor_type;location;lat;lon;timestamp;pressure;altitude;pressure_sealevel;temperature;humidity
76858;BME280;65830;0.000;0.000;2023-06-14T00:01:19;99409.66;;;20.42;71.57
76858;BME280;65830;0.000;0.000;2023-06-14T00:03:47;99405.91;;;20.43;71.53
76858;BME280;65830;0.000;0.000;2023-06-14T00:06:13;99401.16;;;20.38;71.56
76858;BME280;65830;0.000;0.000;2023-06-14T00:08:39;99400.31;;;20.44;71.79
76858;BME280;65830;0.000;0.000;2023-06-14T00:11:06;99394.13;;;20.44;71.51
76858;BME280;65830;0.000;0.000;2023-06-14T00:13:32;99393.69;;;20.47;71.56
76858;BME280;65830;0.000;0.000;2023-06-14T00:15:57;99400.53;;;20.50;71.36
76858;BME280;65830;0.000;0.000;2023-06-14T00:18:23;99394.91;;;20.51;71.71
76858;BME280;65830;0.000;0.000;2023-06-14T00:20:51;99404.47;;;20.47;72.19
76858;BME280;65830;0.000;0.000;2023-06-14T00:23:17;99395.75;;;20.45;72.12
76858;BME280;65830;0.000;0.000;2023-06-14T00:25:43;99397.44;;;20.46;72.35
76858;BME280;65830;0.000;0.000;2023-06-14T00:28:08;99398.25;;;20.40;72.41
76858;BME280;65830;0.000;0.000;2023-06-14T00:30:34;99393.72;;;20.34;72.75
76858;BME280;65830;0.000;0.000;2023-06-14T00:33:01;99386.25;;;20.36;72.84
76858;BME280;65830;0.000;0.000;2023-06-14T00:35:27;99395.16;;;20.30;73.29
76858;BME280;65830;0.000;0.000;2023-06-14T00:37:52;99393.69;;;20.27;73.36
76858;BME280;65830;0.000;0.000;2023-06-14T00:40:20;99393.50;;;20.29;73.24
76858;BME280;65830;0.000;0.000;2023-06-14T00:42:45;99388.72;;;20.31;73.59
76858;BME280;65830;0.000;0.000;2023-06-14T00:45:10;99382.94;;;20.20;73.48
76858;BME280;65830;0.000;0.000;2023-06-14T00:47:36;99383.56;;;20.22;74.00
76858;BME280;65830;0.000;0.000;2023-06-14T00:50:03;99384.59;;;20.21;73.62
76858;BME280;65830;0.000;0.000;2023-06-14T00:52:31;99381.69;;;20.16;74.17
76858;BME280;65830;0.000;0.000;2023-06-14T00:54:57;99373.41;;;20.11;73.95
76858;BME280;65830;0.000;0.000;2023-06-14T00:57:23;99378.78;;;20.11;74.19
76858;BME280;65830;0.000;0.000;2023-06-14T00:59:49;99373.00;;;20.08;74.15
76858;BME280;65830;0.000;0.000;2023-06-14T01:02:17;99378.59;;;20.06;73.90
76858;BME280;65830;0.000;0.000;2023-06-14T01:04:46;99374.66;;;20.09;73.95
76858;BME280;65830;0.000;0.000;2023-06-14T01:12:15;99363.47;;;20.05;74.22
76858;BME280;65830;0.000;0.000;2023-06-14T01:14:43;99371.75;;;20.10;74.73
76858;BME280;65830;0.000;0.000;2023-06-14T01:17:10;99365.94;;;20.13;74.11
76858;BME280;65830;0.000;0.000;2023-06-14T01:19:42;99367.41;;;20.09;74.55
76858;BME280;65830;0.000;0.000;2023-06-14T01:22:09;99362.84;;;20.10;74.58
76858;BME280;65830;0.000;0.000;2023-06-14T01:24:35;99364.53;;;20.04;74.41
76858;BME280;65830;0.000;0.000;2023-06-14T01:27:01;99370.50;;;19.99;74.54
76858;BME280;65830;0.000;0.000;2023-06-14T01:29:27;99374.25;;;19.85;74.63
76858;BME280;65830;0.000;0.000;2023-06-14T01:31:57;99369.25;;;19.82;75.24
76858;BME280;65830;0.000;0.000;2023-06-14T01:34:23;99372.56;;;19.84;75.34
76858;BME280;65830;0.000;0.000;2023-06-14T01:36:50;99370.09;;;19.82;74.90
76858;BME280;65830;0.000;0.000;2023-06-14T01:39:17;99369.88;;;19.77;75.30
76858;BME280;65830;0.000;0.000;2023-06-14T01:41:43;99361.81;;;19.77;75.49
76858;BME280;65830;0.000;0.000;2023-06-14T01:44:11;99363.47;;;19.78;75.24
76858;BME280;65830;0.000;0.000;2023-06-14T01:46:37;99367.38;;;19.76;75.52
76858;BME280;65830;0.000;0.000;2023-06-14T01:49:03;99363.25;;;19.73;75.63
76858;BME280;65830;0.000;0.000;2023-06-14T01:51:29;99360.53;;;19.67;75.52
76858;BME280;65830;0.000;0.000;2023-06-14T01:53:54;99361.34;;;19.67;75.81
76858;BME280;65830;0.000;0.000;2023-06-14T01:56:20;99359.09;;;19.71;75.53
76858;BME280;65830;0.000;0.000;2023-06-14T01:58:47;99369.22;;;19.69;75.54
76858;BME280;65830;0.000;0.000;2023-06-14T02:01:13;99372.53;;;19.71;75.39
76858;BME280;65830;0.000;0.000;2023-06-14T02:03:41;99367.00;;;19.72;75.49
76858;BME280;65830;0.000;0.000;2023-06-14T02:06:07;99371.72;;;19.70;75.16
76858;BME280;65830;0.000;0.000;2023-06-14T02:08:33;99365.69;;;19.68;75.84
76858;BME280;65830;0.000;0.000;2023-06-14T02:10:59;99369.19;;;19.62;75.47
76858;BME280;65830;0.000;0.000;2023-06-14T02:13:25;99364.66;;;19.62;75.95
76858;BME280;65830;0.000;0.000;2023-06-14T02:15:51;99382.88;;;19.67;76.11
76858;BME280;65830;0.000;0.000;2023-06-14T02:18:20;99376.66;;;19.60;75.87
76858;BME280;65830;0.000;0.000;2023-06-14T02:20:46;99371.69;;;19.57;75.81
76858;BME280;65830;0.000;0.000;2023-06-14T02:23:12;99368.78;;;19.52;75.97
76858;BME280;65830;0.000;0.000;2023-06-14T02:25:38;99361.31;;;19.54;76.12
76858;BME280;65830;0.000;0.000;2023-06-14T02:28:06;99369.00;;;19.57;76.01
76858;BME280;65830;0.000;0.000;2023-06-14T02:30:32;99370.44;;;19.53;75.75
76858;BME280;65830;0.000;0.000;2023-06-14T02:32:57;99369.19;;;19.49;75.97
76858;BME280;65830;0.000;0.000;2023-06-14T02:35:24;99376.22;;;19.50;75.93
76858;BME280;65830;0.000;0.000;2023-06-14T02:37:52;99380.34;;;19.45;75.73
76858;BME280;65830;0.000;0.000;2023-06-14T02:40:18;99378.28;;;19.48;75.60
76858;BME280;65830;0.000;0.000;2023-06-14T02:42:43;99387.41;;;19.47;75.75
76858;BME280;65830;0.000;0.000;2023-06-14T02:45:09;99386.56;;;19.46;75.75
76858;BME280;65830;0.000;0.000;2023-06-14T02:47:34;99386.97;;;19.43;75.74
76858;BME280;65830;0.000;0.000;2023-06-14T02:50:00;99376.41;;;19.41;75.69
76858;BME280;65830;0.000;0.000;2023-06-14T02:52:26;99386.31;;;19.34;75.49
76858;BME280;65830;0.000;0.000;2023-06-14T02:54:51;99389.00;;;19.34;75.86
76858;BME280;65830;0.000;0.000;2023-06-14T02:57:17;99387.56;;;19.32;75.69
76858;BME280;65830;0.000;0.000;2023-06-14T02:59:43;99389.00;;;19.28;75.98
76858;BME280;65830;0.000;0.000;2023-06-14T03:02:08;99388.56;;;19.24;75.81
76858;BME280;65830;0.000;0.000;2023-06-14T03:04:34;99398.69;;;19.22;75.78
76858;BME280;65830;0.000;0.000;2023-06-14T03:07:05;99402.63;;;19.19;75.33
76858;BME280;65830;0.000;0.000;2023-06-14T03:09:36;99402.63;;;19.19;75.49
76858;BME280;65830;0.000;0.000;2023-06-14T03:12:03;99400.97;;;19.18;75.37
76858;BME280;65830;0.000;0.000;2023-06-14T03:14:28;99405.94;;;19.15;75.21
76858;BME280;65830;0.000;0.000;2023-06-14T03:16:56;99412.72;;;19.11;75.26
76858;BME280;65830;0.000;0.000;2023-06-14T03:19:23;99420.38;;;19.07;75.53
76858;BME280;65830;0.000;0.000;2023-06-14T03:21:48;99419.53;;;19.07;75.66
76858;BME280;65830;0.000;0.000;2023-06-14T03:24:14;99416.44;;;19.10;75.60
76858;BME280;65830;0.000;0.000;2023-06-14T03:26:42;99417.06;;;19.12;75.42
76858;BME280;65830;0.000;0.000;2023-06-14T03:29:08;99412.31;;;19.14;75.29
76858;BME280;65830;0.000;0.000;2023-06-14T03:31:34;99420.78;;;19.11;75.20
76858;BME280;65830;0.000;0.000;2023-06-14T03:34:02;99423.09;;;19.14;75.54
76858;BME280;65830;0.000;0.000;2023-06-14T03:36:27;99426.16;;;19.11;75.11
76858;BME280;65830;0.000;0.000;2023-06-14T03:38:54;99431.97;;;19.14;75.08
76858;BME280;65830;0.000;0.000;2023-06-14T03:41:20;99428.72;;;19.19;75.05
76858;BME280;65830;0.000;0.000;2023-06-14T03:43:46;99428.09;;;19.23;75.29
76858;BME280;65830;0.000;0.000;2023-06-14T03:46:12;99436.59;;;19.27;75.04
76858;BME280;65830;0.000;0.000;2023-06-14T03:48:38;99439.09;;;19.29;74.41
76858;BME280;65830;0.000;0.000;2023-06-14T03:51:04;99447.34;;;19.27;74.37
76858;BME280;65830;0.000;0.000;2023-06-14T03:53:30;99445.06;;;19.24;74.29
76858;BME280;65830;0.000;0.000;2023-06-14T03:55:57;99443.59;;;19.21;74.72
76858;BME280;65830;0.000;0.000;2023-06-14T03:58:32;99451.88;;;19.20;74.80
76858;BME280;65830;0.000;0.000;2023-06-14T04:00:58;99446.09;;;19.23;74.31
76858;BME280;65830;0.000;0.000;2023-06-14T04:03:25;99448.78;;;19.23;74.06
76858;BME280;65830;0.000;0.000;2023-06-14T04:05:55;99452.09;;;19.25;73.61
76858;BME280;65830;0.000;0.000;2023-06-14T04:08:25;99453.56;;;19.28;73.48
76858;BME280;65830;0.000;0.000;2023-06-14T04:10:50;99457.28;;;19.27;73.20
76858;BME280;65830;0.000;0.000;2023-06-14T04:13:16;99452.72;;;19.27;72.52
76858;BME280;65830;0.000;0.000;2023-06-14T04:15:43;99461.81;;;19.26;72.53
76858;BME280;65830;0.000;0.000;2023-06-14T04:18:14;99458.13;;;19.27;72.34
76858;BME280;65830;0.000;0.000;2023-06-14T04:20:40;99461.44;;;19.29;72.51
76858;BME280;65830;0.000;0.000;2023-06-14T04:23:13;99458.13;;;19.34;72.30
76858;BME280;65830;0.000;0.000;2023-06-14T04:25:39;99464.13;;;19.36;72.51
76858;BME280;65830;0.000;0.000;2023-06-14T04:28:06;99460.66;;;19.42;72.61
76858;BME280;65830;0.000;0.000;2023-06-14T04:30:34;99464.19;;;19.49;72.75
76858;BME280;65830;0.000;0.000;2023-06-14T04:33:03;99470.00;;;19.53;72.23
76858;BME280;65830;0.000;0.000;2023-06-14T04:35:31;99468.16;;;19.53;71.66
76858;BME280;65830;0.000;0.000;2023-06-14T04:37:58;99457.81;;;19.57;71.87
76858;BME280;65830;0.000;0.000;2023-06-14T04:40:25;99460.09;;;19.60;71.42
76858;BME280;65830;0.000;0.000;2023-06-14T04:42:50;99470.66;;;19.61;71.53
76858;BME280;65830;0.000;0.000;2023-06-14T04:45:18;99468.59;;;19.63;70.99
76858;BME280;65830;0.000;0.000;2023-06-14T04:47:45;99477.28;;;19.65;71.03
76858;BME280;65830;0.000;0.000;2023-06-14T04:50:11;99476.91;;;19.69;71.90
76858;BME280;65830;0.000;0.000;2023-06-14T04:52:39;99471.97;;;19.72;71.94
76858;BME280;65830;0.000;0.000;2023-06-14T04:55:05;99476.94;;;19.75;71.71
76858;BME280;65830;0.000;0.000;2023-06-14T04:57:32;99471.16;;;19.78;71.47
76858;BME280;65830;0.000;0.000;2023-06-14T04:59:58;99471.97;;;19.86;71.68
76858;BME280;65830;0.000;0.000;2023-06-14T05:02:28;99478.41;;;19.84;71.17
76858;BME280;65830;0.000;0.000;2023-06-14T05:04:56;99483.75;;;19.78;71.26
76858;BME280;65830;0.000;0.000;2023-06-14T05:07:22;99476.13;;;19.81;71.98
76858;BME280;65830;0.000;0.000;2023-06-14T05:09:50;99486.28;;;19.86;72.16
76858;BME280;65830;0.000;0.000;2023-06-14T05:12:16;99487.34;;;19.98;72.26
76858;BME280;65830;0.000;0.000;2023-06-14T05:14:45;99482.16;;;19.97;71.96
76858;BME280;65830;0.000;0.000;2023-06-14T05:17:11;99480.09;;;19.99;71.80
76858;BME280;65830;0.000;0.000;2023-06-14T05:19:36;99487.34;;;20.05;71.67
76858;BME280;65830;0.000;0.000;2023-06-14T05:22:02;99491.72;;;20.06;72.16
76858;BME280;65830;0.000;0.000;2023-06-14T05:24:28;99499.19;;;20.04;71.54
76858;BME280;65830;0.000;0.000;2023-06-14T05:26:55;99501.25;;;20.02;71.94
76858;BME280;65830;0.000;0.000;2023-06-14T05:29:21;99505.59;;;20.03;72.27
76858;BME280;65830;0.000;0.000;2023-06-14T05:31:47;99500.19;;;20.03;72.43
76858;BME280;65830;0.000;0.000;2023-06-14T05:34:12;99506.41;;;19.97;72.22
76858;BME280;65830;0.000;0.000;2023-06-14T05:36:37;99506.00;;;20.00;72.45
76858;BME280;65830;0.000;0.000;2023-06-14T05:39:04;99507.25;;;20.04;72.35
76858;BME280;65830;0.000;0.000;2023-06-14T05:41:31;99506.44;;;20.10;72.38
76858;BME280;65830;0.000;0.000;2023-06-14T05:43:56;99509.31;;;20.09;72.23
76858;BME280;65830;0.000;0.000;2023-06-14T05:46:22;99512.25;;;20.14;72.41
76858;BME280;65830;0.000;0.000;2023-06-14T05:48:54;99520.53;;;20.12;72.68
76858;BME280;65830;0.000;0.000;2023-06-14T05:51:20;99518.84;;;20.11;72.53
76858;BME280;65830;0.000;0.000;2023-06-14T05:53:46;99525.06;;;20.12;72.26
76858;BME280;65830;0.000;0.000;2023-06-14T05:56:11;99534.38;;;20.09;72.33
76858;BME280;65830;0.000;0.000;2023-06-14T05:58:37;99535.44;;;20.08;72.61
76858;BME280;65830;0.000;0.000;2023-06-14T06:01:03;99529.44;;;20.06;72.83
76858;BME280;65830;0.000;0.000;2023-06-14T06:03:28;99529.19;;;20.01;72.25
76858;BME280;65830;0.000;0.000;2023-06-14T06:05:57;99530.00;;;19.95;72.34
76858;BME280;65830;0.000;0.000;2023-06-14T06:08:23;99527.31;;;19.95;72.79
76858;BME280;65830;0.000;0.000;2023-06-14T06:10:48;99529.38;;;19.93;72.65
76858;BME280;65830;0.000;0.000;2023-06-14T06:13:14;99528.97;;;19.96;72.76
76858;BME280;65830;0.000;0.000;2023-06-14T06:15:39;99519.25;;;19.95;72.51
76858;BME280;65830;0.000;0.000;2023-06-14T06:18:05;99525.88;;;19.99;72.66
76858;BME280;65830;0.000;0.000;2023-06-14T06:20:31;99535.41;;;19.95;72.24
76858;BME280;65830;0.000;0.000;2023-06-14T06:22:57;99528.34;;;19.94;72.24
76858;BME280;65830;0.000;0.000;2023-06-14T06:25:23;99534.56;;;20.01;72.11
76858;BME280;65830;0.000;0.000;2023-06-14T06:27:51;99540.81;;;20.08;71.66
76858;BME280;65830;0.000;0.000;2023-06-14T06:30:17;99534.63;;;20.14;72.04
76858;BME280;65830;0.000;0.000;2023-06-14T06:32:43;99528.22;;;20.22;72.23
76858;BME280;65830;0.000;0.000;2023-06-14T06:35:08;99534.66;;;20.34;71.83
76858;BME280;65830;0.000;0.000;2023-06-14T06:37:36;99535.25;;;20.43;71.77
76858;BME280;65830;0.000;0.000;2023-06-14T06:40:02;99534.66;;;20.54;71.83
76858;BME280;65830;0.000;0.000;2023-06-14T06:42:29;99540.50;;;20.65;70.80
76858;BME280;65830;0.000;0.000;2023-06-14T06:44:58;99543.38;;;20.56;68.23
76858;BME280;65830;0.000;0.000;2023-06-14T06:47:24;99540.91;;;20.61;68.76
76858;BME280;65830;0.000;0.000;2023-06-14T06:49:50;99537.16;;;20.69;68.55
76858;BME280;65830;0.000;0.000;2023-06-14T06:52:16;99547.97;;;20.62;68.02
76858;BME280;65830;0.000;0.000;2023-06-14T06:54:41;99539.84;;;20.69;68.05
76858;BME280;65830;0.000;0.000;2023-06-14T06:57:06;99543.19;;;20.78;68.30
76858;BME280;65830;0.000;0.000;2023-06-14T06:59:33;99541.72;;;20.89;68.28
76858;BME280;65830;0.000;0.000;2023-06-14T07:01:58;99539.63;;;21.04;68.42
76858;BME280;65830;0.000;0.000;2023-06-14T07:04:24;99540.44;;;21.18;68.31
76858;BME280;65830;0.000;0.000;2023-06-14T07:06:49;99545.59;;;21.33;68.37
76858;BME280;65830;0.000;0.000;2023-06-14T07:09:15;99541.19;;;21.38;67.93
76858;BME280;65830;0.000;0.000;2023-06-14T07:11:42;99541.59;;;21.42;68.32
76858;BME280;65830;0.000;0.000;2023-06-14T07:14:07;99537.69;;;21.51;67.27
76858;BME280;65830;0.000;0.000;2023-06-14T07:16:33;99539.31;;;21.59;67.03
76858;BME280;65830;0.000;0.000;2023-06-14T07:18:58;99541.16;;;21.58;66.52
76858;BME280;65830;0.000;0.000;2023-06-14T07:21:24;99536.78;;;21.64;66.93
76858;BME280;65830;0.000;0.000;2023-06-14T07:23:51;99541.56;;;21.69;67.52
76858;BME280;65830;0.000;0.000;2023-06-14T07:26:16;99536.53;;;21.72;67.16
76858;BME280;65830;0.000;0.000;2023-06-14T07:28:42;99532.81;;;21.73;66.75
76858;BME280;65830;0.000;0.000;2023-06-14T07:31:10;99531.06;;;21.86;67.65
76858;BME280;65830;0.000;0.000;2023-06-14T07:33:36;99531.06;;;21.92;67.02
76858;BME280;65830;0.000;0.000;2023-06-14T07:36:02;99529.34;;;21.98;66.51
76858;BME280;65830;0.000;0.000;2023-06-14T07:38:28;99535.94;;;22.09;66.20
76858;BME280;65830;0.000;0.000;2023-06-14T07:40:53;99535.88;;;22.22;65.74
76858;BME280;65830;0.000;0.000;2023-06-14T07:43:19;99528.78;;;22.28;65.08
76858;BME280;65830;0.000;0.000;2023-06-14T07:45:44;99527.94;;;22.34;65.35
76858;BME280;65830;0.000;0.000;2023-06-14T07:48:10;99535.38;;;22.38;64.78
76858;BME280;65830;0.000;0.000;2023-06-14T07:50:36;99535.75;;;22.42;63.86
76858;BME280;65830;0.000;0.000;2023-06-14T07:53:02;99533.06;;;22.42;63.34
76858;BME280;65830;0.000;0.000;2023-06-14T07:55:27;99526.97;;;22.47;62.97
76858;BME280;65830;0.000;0.000;2023-06-14T07:57:53;99522.41;;;22.47;62.74
76858;BME280;65830;0.000;0.000;2023-06-14T08:00:19;99532.78;;;22.50;62.39
76858;BME280;65830;0.000;0.000;2023-06-14T08:02:45;99530.22;;;22.55;62.21
76858;BME280;65830;0.000;0.000;2023-06-14T08:05:11;99526.03;;;22.59;62.85
76858;BME280;65830;0.000;0.000;2023-06-14T08:07:37;99536.81;;;22.66;63.25
76858;BME280;65830;0.000;0.000;2023-06-14T08:10:03;99539.25;;;22.74;62.25
76858;BME280;65830;0.000;0.000;2023-06-14T08:12:29;99528.81;;;22.78;63.01
76858;BME280;65830;0.000;0.000;2023-06-14T08:14:55;99532.72;;;22.82;61.52
76858;BME280;65830;0.000;0.000;2023-06-14T08:17:20;99546.03;;;22.84;59.63
76858;BME280;65830;0.000;0.000;2023-06-14T08:19:46;99549.09;;;22.87;60.39
76858;BME280;65830;0.000;0.000;2023-06-14T08:22:12;99545.34;;;22.88;59.07
76858;BME280;65830;0.000;0.000;2023-06-14T08:24:47;99542.22;;;22.91;58.89
76858;BME280;65830;0.000;0.000;2023-06-14T08:27:13;99550.66;;;23.02;60.17
76858;BME280;65830;0.000;0.000;2023-06-14T08:29:38;99552.81;;;23.18;59.70
76858;BME280;65830;0.000;0.000;2023-06-14T08:32:06;99555.44;;;23.25;59.54
76858;BME280;65830;0.000;0.000;2023-06-14T08:34:31;99561.22;;;23.28;58.48
76858;BME280;65830;0.000;0.000;2023-06-14T08:36:57;99563.13;;;23.28;57.57
76858;BME280;65830;0.000;0.000;2023-06-14T08:39:22;99556.72;;;23.22;57.83
76858;BME280;65830;0.000;0.000;2023-06-14T08:41:48;99567.84;;;23.14;58.96
76858;BME280;65830;0.000;0.000;2023-06-14T08:44:16;99563.50;;;23.31;57.88
76858;BME280;65830;0.000;0.000;2023-06-14T08:46:47;99568.47;;;23.53;58.40
76858;BME280;65830;0.000;0.000;2023-06-14T08:49:13;99562.88;;;23.66;57.20
76858;BME280;65830;0.000;0.000;2023-06-14T08:51:41;99566.44;;;23.67;56.34
76858;BME280;65830;0.000;0.000;2023-06-14T08:54:08;99566.19;;;23.68;58.04
76858;BME280;65830;0.000;0.000;2023-06-14T08:56:35;99555.22;;;23.82;57.52
76858;BME280;65830;0.000;0.000;2023-06-14T08:59:02;99560.38;;;24.02;55.92
76858;BME280;65830;0.000;0.000;2023-06-14T09:01:35;99560.16;;;24.03;56.29
76858;BME280;65830;0.000;0.000;2023-06-14T09:04:01;99554.25;;;24.06;56.73
76858;BME280;65830;0.000;0.000;2023-06-14T09:06:27;99557.38;;;24.22;56.08
76858;BME280;65830;0.000;0.000;2023-06-14T09:08:54;99557.75;;;24.25;56.50
76858;BME280;65830;0.000;0.000;2023-06-14T09:11:23;99553.63;;;24.23;56.15
76858;BME280;65830;0.000;0.000;2023-06-14T09:13:49;99552.94;;;24.27;56.28
76858;BME280;65830;0.000;0.000;2023-06-14T09:16:14;99552.22;;;24.32;56.71
76858;BME280;65830;0.000;0.000;2023-06-14T09:18:41;99550.97;;;24.34;55.11
76858;BME280;65830;0.000;0.000;2023-06-14T09:21:09;99536.81;;;24.32;54.85
76858;BME280;65830;0.000;0.000;2023-06-14T09:23:38;99545.75;;;24.33;54.89
76858;BME280;65830;0.000;0.000;2023-06-14T09:26:10;99542.22;;;24.32;54.63
76858;BME280;65830;0.000;0.000;2023-06-14T09:28:36;99541.97;;;24.34;56.04
76858;BME280;65830;0.000;0.000;2023-06-14T09:31:06;99545.75;;;24.33;55.44
76858;BME280;65830;0.000;0.000;2023-06-14T09:33:33;99537.78;;;24.38;55.79
76858;BME280;65830;0.000;0.000;2023-06-14T09:35:59;99533.97;;;24.39;57.00
76858;BME280;65830;0.000;0.000;2023-06-14T09:38:25;99525.97;;;24.44;55.21
76858;BME280;65830;0.000;0.000;2023-06-14T09:40:50;99538.22;;;24.35;53.61
76858;BME280;65830;0.000;0.000;2023-06-14T09:43:16;99529.25;;;24.34;53.37
76858;BME280;65830;0.000;0.000;2023-06-14T09:45:42;99525.25;;;24.37;53.99
76858;BME280;65830;0.000;0.000;2023-06-14T09:48:11;99521.94;;;24.35;53.00
76858;BME280;65830;0.000;0.000;2023-06-14T09:50:37;99530.31;;;24.33;54.25
76858;BME280;65830;0.000;0.000;2023-06-14T09:53:04;99527.25;;;24.42;55.19
76858;BME280;65830;0.000;0.000;2023-06-14T09:55:31;99529.63;;;24.50;55.01
76858;BME280;65830;0.000;0.000;2023-06-14T09:58:00;99529.09;;;24.60;54.34
76858;BME280;65830;0.000;0.000;2023-06-14T10:00:28;99524.72;;;24.58;54.17
76858;BME280;65830;0.000;0.000;2023-06-14T10:02:57;99519.91;;;24.61;56.33
76858;BME280;65830;0.000;0.000;2023-06-14T10:05:26;99511.53;;;24.62;53.60
76858;BME280;65830;0.000;0.000;2023-06-14T10:07:59;99507.88;;;24.80;52.95
76858;BME280;65830;0.000;0.000;2023-06-14T10:10:25;99509.88;;;24.73;53.47
76858;BME280;65830;0.000;0.000;2023-06-14T10:12:51;99510.59;;;24.68;54.06
76858;BME280;65830;0.000;0.000;2023-06-14T10:15:19;99506.56;;;24.59;53.50
76858;BME280;65830;0.000;0.000;2023-06-14T10:17:50;99511.03;;;24.65;54.71
76858;BME280;65830;0.000;0.000;2023-06-14T10:23:30;99508.47;;;24.70;56.94
76858;BME280;65830;0.000;0.000;2023-06-14T10:25:31;99510.47;;;24.75;54.98
76858;BME280;65830;0.000;0.000;2023-06-14T10:28:03;99509.16;;;24.77;54.82
76858;BME280;65830;0.000;0.000;2023-06-14T10:30:29;99501.72;;;24.96;54.54
76858;BME280;65830;0.000;0.000;2023-06-14T10:33:07;99502.56;;;24.97;53.68
76858;BME280;65830;0.000;0.000;2023-06-14T10:35:33;99497.84;;;25.04;54.64
76858;BME280;65830;0.000;0.000;2023-06-14T10:38:11;99500.31;;;25.17;54.95
76858;BME280;65830;0.000;0.000;2023-06-14T10:40:37;99496.38;;;25.37;53.25
76858;BME280;65830;0.000;0.000;2023-06-14T10:43:22;99488.59;;;25.41;53.96
76858;BME280;65830;0.000;0.000;2023-06-14T10:48:40;99502.28;;;25.46;55.73
76858;BME280;65830;0.000;0.000;2023-06-14T10:51:05;99493.16;;;25.52;54.15
76858;BME280;65830;0.000;0.000;2023-06-14T10:53:39;99484.78;;;25.53;53.68
76858;BME280;65830;0.000;0.000;2023-06-14T10:56:08;99492.19;;;25.58;52.72
76858;BME280;65830;0.000;0.000;2023-06-14T10:58:33;99488.31;;;25.54;54.18
76858;BME280;65830;0.000;0.000;2023-06-14T11:00:59;99496.00;;;25.57;53.27
76858;BME280;65830;0.000;0.000;2023-06-14T11:05:51;99484.81;;;25.70;54.08
76858;BME280;65830;0.000;0.000;2023-06-14T11:10:49;99482.41;;;25.86;52.43
76858;BME280;65830;0.000;0.000;2023-06-14T11:13:18;99483.03;;;25.76;51.03
76858;BME280;65830;0.000;0.000;2023-06-14T11:15:44;99485.00;;;25.81;52.77
76858;BME280;65830;0.000;0.000;2023-06-14T11:18:10;99489.38;;;25.82;52.94
76858;BME280;65830;0.000;0.000;2023-06-14T11:20:37;99476.19;;;25.73;49.32
76858;BME280;65830;0.000;0.000;2023-06-14T11:23:02;99481.88;;;25.72;51.96
76858;BME280;65830;0.000;0.000;2023-06-14T11:25:28;99477.59;;;25.76;51.50
76858;BME280;65830;0.000;0.000;2023-06-14T11:27:54;99469.38;;;25.88;51.90
76858;BME280;65830;0.000;0.000;2023-06-14T11:30:20;99465.97;;;25.92;52.53
76858;BME280;65830;0.000;0.000;2023-06-14T11:32:49;99460.22;;;26.06;52.34
76858;BME280;65830;0.000;0.000;2023-06-14T11:35:15;99467.97;;;26.14;51.38
76858;BME280;65830;0.000;0.000;2023-06-14T11:37:41;99461.25;;;26.17;51.24
76858;BME280;65830;0.000;0.000;2023-06-14T11:40:07;99462.56;;;26.31;49.96
76858;BME280;65830;0.000;0.000;2023-06-14T11:42:33;99458.84;;;26.37;50.77
76858;BME280;65830;0.000;0.000;2023-06-14T11:44:59;99461.16;;;26.62;48.63
76858;BME280;65830;0.000;0.000;2023-06-14T11:47:30;99462.72;;;26.75;47.75
76858;BME280;65830;0.000;0.000;2023-06-14T11:49:58;99456.97;;;26.93;48.95
76858;BME280;65830;0.000;0.000;2023-06-14T11:52:23;99440.84;;;27.09;48.23
76858;BME280;65830;0.000;0.000;2023-06-14T11:54:49;99449.25;;;27.07;48.67
76858;BME280;65830;0.000;0.000;2023-06-14T11:57:14;99446.84;;;27.11;48.93
76858;BME280;65830;0.000;0.000;2023-06-14T11:59:40;99446.22;;;27.04;48.61
76858;BME280;65830;0.000;0.000;2023-06-14T12:02:06;99439.13;;;26.81;49.67
76858;BME280;65830;0.000;0.000;2023-06-14T12:04:32;99435.50;;;26.75;48.53
76858;BME280;65830;0.000;0.000;2023-06-14T12:07:08;99442.22;;;26.89;50.07
76858;BME280;65830;0.000;0.000;2023-06-14T12:09:34;99438.91;;;27.26;48.84
76858;BME280;65830;0.000;0.000;2023-06-14T12:12:00;99439.94;;;27.69;47.78
76858;BME280;65830;0.000;0.000;2023-06-14T12:14:32;99435.84;;;27.94;48.02
76858;BME280;65830;0.000;0.000;2023-06-14T12:17:05;99430.03;;;28.18;47.53
76858;BME280;65830;0.000;0.000;2023-06-14T12:19:33;99420.38;;;28.42;46.95
76858;BME280;65830;0.000;0.000;2023-06-14T12:22:07;99417.78;;;28.58;46.01
76858;BME280;65830;0.000;0.000;2023-06-14T12:24:34;99419.78;;;28.67;46.10
76858;BME280;65830;0.000;0.000;2023-06-14T12:26:59;99408.03;;;28.72;43.78
76858;BME280;65830;0.000;0.000;2023-06-14T12:29:25;99409.47;;;28.80;45.32
76858;BME280;65830;0.000;0.000;2023-06-14T12:31:51;99413.09;;;28.96;45.57
76858;BME280;65830;0.000;0.000;2023-06-14T12:34:19;99418.63;;;29.06;44.87
76858;BME280;65830;0.000;0.000;2023-06-14T12:36:44;99403.63;;;29.14;44.18
76858;BME280;65830;0.000;0.000;2023-06-14T12:39:11;99410.13;;;29.07;45.29
76858;BME280;65830;0.000;0.000;2023-06-14T12:41:37;99409.31;;;29.07;44.50
76858;BME280;65830;0.000;0.000;2023-06-14T12:44:02;99398.44;;;29.17;43.48
76858;BME280;65830;0.000;0.000;2023-06-14T12:46:32;99395.78;;;29.33;43.99
76858;BME280;65830;0.000;0.000;2023-06-14T12:48:58;99382.72;;;29.65;42.67
76858;BME280;65830;0.000;0.000;2023-06-14T12:51:23;99394.25;;;29.83;42.29
76858;BME280;65830;0.000;0.000;2023-06-14T12:53:50;99384.41;;;30.02;42.60
76858;BME280;65830;0.000;0.000;2023-06-14T12:56:16;99377.28;;;30.27;42.53
76858;BME280;65830;0.000;0.000;2023-06-14T12:58:41;99381.09;;;30.52;40.86
76858;BME280;65830;0.000;0.000;2023-06-14T13:01:10;99371.44;;;30.69;41.35
76858;BME280;65830;0.000;0.000;2023-06-14T13:03:36;99374.41;;;30.78;41.46
76858;BME280;65830;0.000;0.000;2023-06-14T13:06:02;99385.09;;;30.95;41.47
76858;BME280;65830;0.000;0.000;2023-06-14T13:08:29;99377.09;;;31.04;38.38
76858;BME280;65830;0.000;0.000;2023-06-14T13:10:55;99369.88;;;31.23;39.83
76858;BME280;65830;0.000;0.000;2023-06-14T13:13:21;99373.84;;;30.97;39.31
76858;BME280;65830;0.000;0.000;2023-06-14T13:15:46;99378.19;;;31.03;40.11
76858;BME280;65830;0.000;0.000;2023-06-14T13:18:12;99379.81;;;31.14;40.31
76858;BME280;65830;0.000;0.000;2023-06-14T13:20:38;99384.69;;;31.22;38.41
76858;BME280;65830;0.000;0.000;2023-06-14T13:23:04;99376.16;;;31.29;39.79